Time;durP1;ratioP1;P1;durP2;ratioP2;P2;SDS_P1;SDS_P2;PMS_P1;PMS_P2;Temp;Humidity;BMP_temperature;BMP_pressure;BME280_temperature;BME280_humidity;BME280_pressure;Samples;Min_cycle;Max_cycle;Signal;HPM_P1;HPM_P2
2022/08/22 00:00:54;;;;;;;13.57;4.75;;;;;;;15.60;86.15;98272.38;5065226;28;20324;-71
2022/08/22 00:03:29;;;;;;;8.98;4.38;;;;;;;15.57;86.04;98267.25;5064907;28;20112;-71
2022/08/22 00:06:16;;;;;;;12.25;4.93;;;;;;;15.45;86.59;98262.50;5052648;28;20049;-71
2022/08/22 00:09:17;;;;;;;10.02;4.38;;;;;;;15.21;87.46;98258.22;5048131;28;20025;-71
2022/08/22 00:11:50;;;;;;;10.18;4.03;;;;;;;15.10;88.10;98255.19;5059034;28;20118;-71
2022/08/22 00:14:29;;;;;;;10.60;4.63;;;;;;;15.07;87.90;98260.63;5066365;28;20092;-71
2022/08/22 00:17:29;;;;;;;14.35;4.50;;;;;;;15.10;87.87;98255.19;5066071;28;20016;-71
2022/08/22 00:20:11;;;;;;;15.32;4.20;;;;;;;15.11;87.73;98260.44;5064607;28;20119;-71
2022/08/22 00:22:57;;;;;;;8.68;3.90;;;;;;;15.02;88.15;98257.28;5063441;28;20386;-71
2022/08/22 00:25:45;;;;;;;10.93;4.82;;;;;;;15.13;88.39;98255.91;5046710;28;20329;-71
2022/08/22 00:28:23;;;;;;;15.73;4.88;;;;;;;15.19;88.42;98257.44;5050019;28;20112;-71
2022/08/22 00:30:57;;;;;;;15.43;4.35;;;;;;;15.29;87.08;98256.09;5046502;28;20045;-71
2022/08/22 00:33:29;;;;;;;11.90;3.67;;;;;;;15.15;87.44;98250.53;5058903;28;20112;-71
2022/08/22 00:36:42;;;;;;;11.85;5.20;;;;;;;15.08;87.41;98252.59;5056463;28;20036;-71
2022/08/22 00:39:34;;;;;;;8.70;4.40;;;;;;;15.06;87.67;98248.28;5046518;28;20048;-71
2022/08/22 00:42:36;;;;;;;8.90;4.25;;;;;;;15.04;87.98;98250.16;5051701;28;20054;-71
2022/08/22 00:45:11;;;;;;;9.13;4.75;;;;;;;14.84;88.56;98252.78;5066000;28;20221;-71
2022/08/22 00:47:49;;;;;;;10.38;4.22;;;;;;;14.75;89.08;98247.88;5065368;28;20213;-71
2022/08/22 00:50:42;;;;;;;13.25;4.88;;;;;;;14.69;88.99;98248.97;5059522;28;20025;-71
2022/08/22 00:53:23;;;;;;;12.43;4.35;;;;;;;14.56;90.55;98252.22;5062739;28;20259;-71
2022/08/22 00:55:57;;;;;;;9.75;5.05;;;;;;;14.57;90.69;98253.94;5065103;28;20044;-71
2022/08/22 00:58:34;;;;;;;12.68;4.43;;;;;;;14.66;90.33;98254.44;5052665;28;20016;-71
2022/08/22 01:01:09;;;;;;;13.65;4.95;;;;;;;14.60;90.02;98248.50;5061794;28;20052;-71
2022/08/22 01:03:53;;;;;;;9.48;4.80;;;;;;;14.44;90.37;98248.28;5047088;28;20056;-71
2022/08/22 01:06:38;;;;;;;10.25;4.38;;;;;;;14.38;91.04;98247.66;5052801;28;20035;-71
2022/08/22 01:09:38;;;;;;;11.35;4.43;;;;;;;14.41;91.14;98253.72;5055160;28;20079;-71
2022/08/22 01:12:39;;;;;;;10.07;4.57;;;;;;;14.30;91.11;98245.31;5059954;28;20020;-71
2022/08/22 01:15:12;;;;;;;10.27;4.82;;;;;;;14.32;91.48;98251.44;5064903;28;21270;-71
2022/08/22 01:18:12;;;;;;;13.15;5.53;;;;;;;14.40;91.96;98248.47;5050503;28;20021;-71
2022/08/22 01:21:24;;;;;;;12.32;4.78;;;;;;;14.45;91.57;98254.44;5054944;28;20029;-71
2022/08/22 01:24:05;;;;;;;;;;;;;;;14.19;90.62;98241.34;5045223;28;20029;-71
2022/08/22 01:26:51;;;;;;;13.80;4.45;;;;;;;14.05;91.46;98243.69;5046655;28;19955;-71
2022/08/22 01:29:35;;;;;;;10.95;4.93;;;;;;;13.94;92.38;98251.16;5046000;28;20079;-71
2022/08/22 01:32:27;;;;;;;9.18;3.92;;;;;;;13.90;93.16;98241.63;5064870;28;20341;-71
2022/08/22 01:35:01;;;;;;;14.10;4.55;;;;;;;13.84;92.98;98241.88;5064852;28;20032;-71
2022/08/22 01:37:56;;;;;;;12.68;3.97;;;;;;;13.90;92.64;98244.28;5064467;28;20082;-71
2022/08/22 01:41:22;;;;;;;10.65;4.72;;;;;;;13.92;92.63;98239.81;5064414;28;20092;-71
2022/08/22 01:43:59;;;;;;;14.05;4.90;;;;;;;13.81;92.45;98240.22;5059776;28;20033;-71
2022/08/22 01:46:49;;;;;;;8.63;4.43;;;;;;;13.59;92.72;98233.13;5062883;28;20029;-71
2022/08/22 01:49:30;;;;;;;15.98;5.10;;;;;;;13.66;93.03;98234.63;5045087;28;20025;-71
2022/08/22 01:52:19;;;;;;;10.77;4.35;;;;;;;13.52;92.16;98235.16;5045078;28;20029;-71
2022/08/22 01:54:57;;;;;;;13.93;4.43;;;;;;;13.55;92.67;98237.69;5044985;28;20025;-71
2022/08/22 01:57:25;;;;;;;11.43;4.50;;;;;;;13.48;92.05;98240.63;5048655;28;20033;-71
2022/08/22 01:59:54;;;;;;;7.65;4.32;;;;;;;13.27;93.06;98234.34;5052487;28;20240;-70
2022/08/22 02:02:44;;;;;;;9.52;3.92;;;;;;;13.18;93.38;98233.78;5046417;28;20238;-70
2022/08/22 02:05:15;;;;;;;9.30;4.63;;;;;;;13.36;93.87;98241.06;5044602;28;20049;-70
2022/08/22 02:07:47;;;;;;;11.35;4.53;;;;;;;13.36;93.62;98238.41;5053807;28;20020;-70
2022/08/22 02:10:40;;;;;;;9.80;4.78;;;;;;;13.29;94.07;98239.56;5052780;28;20025;-70
2022/08/22 02:13:29;;;;;;;12.68;5.10;;;;;;;13.22;93.81;98238.91;5044698;28;20258;-70
2022/08/22 02:16:10;;;;;;;12.52;4.68;;;;;;;13.13;93.89;98233.09;5045704;28;20056;-70
2022/08/22 02:18:55;;;;;;;15.57;5.28;;;;;;;12.90;93.46;98232.09;5048670;28;20024;-70
2022/08/22 02:21:37;;;;;;;11.50;4.18;;;;;;;12.98;94.72;98235.31;5054245;28;20021;-70
2022/08/22 02:24:33;;;;;;;12.60;4.63;;;;;;;13.10;94.57;98236.69;5063924;28;20032;-70
2022/08/22 02:27:34;;;;;;;9.48;4.43;;;;;;;13.00;94.58;98238.81;5059777;28;20052;-70
2022/08/22 02:30:02;;;;;;;10.60;4.30;;;;;;;12.74;93.63;98236.19;5063615;28;20037;-70
2022/08/22 02:32:40;;;;;;;10.50;4.22;;;;;;;12.70;94.53;98233.72;5050827;28;20025;-70
2022/08/22 02:35:25;;;;;;;9.35;4.18;;;;;;;12.52;94.41;98229.91;5045430;28;20028;-70
2022/08/22 02:38:04;;;;;;;19.80;4.75;;;;;;;12.41;95.89;98233.81;5060615;28;20021;-70
2022/08/22 02:40:32;;;;;;;9.05;4.32;;;;;;;12.37;97.79;98233.03;5055540;28;20028;-70
2022/08/22 02:43:00;;;;;;;10.35;4.95;;;;;;;12.32;98.14;98231.47;5057217;28;20029;-70
2022/08/22 02:45:39;;;;;;;10.02;4.60;;;;;;;12.33;98.24;98228.78;5044450;28;20025;-70
2022/08/22 02:48:10;;;;;;;8.35;4.45;;;;;;;12.34;97.31;98225.22;5044232;28;20097;-70
2022/08/22 02:50:45;;;;;;;10.30;4.10;;;;;;;12.42;96.88;98228.50;5045528;28;20028;-70
2022/08/22 02:53:22;;;;;;;10.52;4.75;;;;;;;12.16;96.33;98231.13;5062149;28;20025;-70
2022/08/22 02:56:25;;;;;;;10.45;4.22;;;;;;;12.22;97.29;98236.16;5049420;28;20051;-70
2022/08/22 02:58:56;;;;;;;17.83;4.43;;;;;;;12.30;97.65;98238.56;5024684;28;20081;-70
2022/08/22 03:01:28;;;;;;;11.38;4.38;;;;;;;12.48;97.74;98230.94;5052994;28;20032;-70
2022/08/22 03:04:43;;;;;;;10.88;4.60;;;;;;;12.64;97.33;98229.50;5063129;28;20151;-70
2022/08/22 03:07:24;;;;;;;10.25;4.90;;;;;;;12.18;95.36;98224.00;5045279;28;20075;-70
2022/08/22 03:10:17;;;;;;;14.05;4.90;;;;;;;12.04;96.57;98226.22;5043903;28;20021;-70
2022/08/22 03:13:06;;;;;;;9.23;4.40;;;;;;;11.89;97.36;98216.16;5058038;28;20028;-70
2022/08/22 03:15:44;;;;;;;9.95;4.45;;;;;;;12.01;98.78;98222.81;5059565;28;20041;-70
2022/08/22 03:18:28;;;;;;;11.00;4.90;;;;;;;11.97;99.75;98224.69;5050702;28;20216;-70
2022/08/22 03:21:14;;;;;;;12.90;4.30;;;;;;;11.98;99.41;98226.41;5065990;28;20024;-70
2022/08/22 03:23:53;;;;;;;7.32;4.20;;;;;;;11.96;98.64;98227.38;5047920;28;20100;-70
2022/08/22 03:26:26;;;;;;;17.45;4.78;;;;;;;11.82;98.02;98225.16;5055466;28;20095;-70
2022/08/22 03:28:58;;;;;;;14.00;4.68;;;;;;;11.82;98.51;98235.72;5063376;28;20029;-70
2022/08/22 03:31:25;;;;;;;8.40;4.03;;;;;;;11.88;98.62;98232.91;5047596;28;20065;-70
2022/08/22 03:34:16;;;;;;;9.90;4.60;;;;;;;11.93;98.07;98235.38;5066694;28;20074;-70
2022/08/22 03:36:57;;;;;;;13.80;4.40;;;;;;;11.63;95.82;98224.00;5066978;28;20217;-70
2022/08/22 03:39:44;;;;;;;18.73;4.85;;;;;;;11.39;96.99;98219.41;5066702;28;20029;-70
2022/08/22 03:42:42;;;;;;;30.27;5.38;;;;;;;11.45;98.70;98213.13;5047475;28;20335;-70
2022/08/22 03:45:55;;;;;;;20.70;5.40;;;;;;;11.42;98.50;98218.47;5047447;28;20317;-70
2022/08/22 03:48:37;;;;;;;8.95;4.50;;;;;;;11.53;98.23;98227.78;5047254;28;20092;-70
2022/08/22 03:51:21;;;;;;;17.98;5.47;;;;;;;11.65;98.67;98232.72;5047650;28;20021;-70
2022/08/22 03:53:46;;;;;;;17.92;4.72;;;;;;;11.72;98.40;98239.53;5048521;28;20096;-70
2022/08/22 03:56:21;;;;;;;14.10;4.25;;;;;;;11.39;96.49;98227.31;5050010;28;20351;-70
2022/08/22 03:58:59;;;;;;;12.15;4.70;;;;;;;11.23;97.46;98228.66;5057533;28;20076;-70
2022/08/22 04:01:43;;;;;;;10.18;4.72;;;;;;;11.05;99.17;98229.19;5058343;28;20025;-70
2022/08/22 04:04:42;;;;;;;14.88;5.15;;;;;;;11.09;100.00;98228.19;5063933;28;20025;-70
2022/08/22 04:07:39;;;;;;;9.55;4.20;;;;;;;11.09;99.50;98235.22;5066023;28;20056;-70
2022/08/22 04:10:22;;;;;;;10.52;4.60;;;;;;;11.06;98.30;98235.31;5052813;28;20047;-70
2022/08/22 04:13:33;;;;;;;14.30;4.38;;;;;;;11.03;98.64;98236.25;5046865;28;20325;-70
2022/08/22 04:16:11;;;;;;;10.13;4.30;;;;;;;11.25;99.19;98241.78;5045154;28;20072;-70
2022/08/22 04:18:48;;;;;;;12.82;4.45;;;;;;;11.04;98.56;98232.72;5045075;28;20033;-70
2022/08/22 04:21:29;;;;;;;10.40;4.57;;;;;;;11.07;98.91;98237.88;5045129;28;20208;-70
2022/08/22 04:24:16;;;;;;;13.55;4.75;;;;;;;10.88;99.11;98241.94;5045049;28;20084;-70
2022/08/22 04:26:57;;;;;;;17.63;4.57;;;;;;;11.02;99.35;98250.34;5044949;28;20072;-70
2022/08/22 04:29:41;;;;;;;10.65;4.53;;;;;;;11.10;99.13;98243.06;5044628;28;20040;-70
2022/08/22 04:32:11;;;;;;;8.10;4.72;;;;;;;11.14;99.32;98242.09;5044851;28;20033;-70
2022/08/22 04:34:44;;;;;;;8.68;4.25;;;;;;;11.18;99.75;98238.47;5044779;28;20353;-70
2022/08/22 04:37:23;;;;;;;11.63;4.43;;;;;;;10.97;98.11;98228.53;5044773;28;20340;-70
2022/08/22 04:40:08;;;;;;;15.00;4.55;;;;;;;11.07;99.09;98237.88;5044755;28;20041;-70
2022/08/22 04:42:44;;;;;;;8.07;4.40;;;;;;;11.18;99.49;98243.75;5044628;28;20139;-70
2022/08/22 04:45:21;;;;;;;8.32;4.53;;;;;;;11.15;99.08;98240.31;5044601;28;20340;-70
2022/08/22 04:48:02;;;;;;;11.15;4.57;;;;;;;11.18;98.88;98233.22;5044538;28;20321;-70
2022/08/22 04:50:40;;;;;;;6.60;3.63;;;;;;;11.21;98.55;98235.75;5045754;28;20037;-70
2022/08/22 04:53:11;;;;;;;11.95;4.03;;;;;;;11.21;98.62;98240.16;5046199;28;20029;-70
2022/08/22 04:56:15;;;;;;;8.85;4.40;;;;;;;11.23;98.32;98233.91;5046164;28;20025;-70
2022/08/22 04:58:59;;;;;;;9.85;5.22;;;;;;;11.15;98.58;98230.66;5046351;28;20044;-70
2022/08/22 05:01:47;;;;;;;8.45;3.58;;;;;;;11.09;98.52;98229.94;5046033;28;20021;-70
2022/08/22 05:04:19;;;;;;;10.50;3.95;;;;;;;11.12;99.13;98241.28;5046263;28;20031;-70
2022/08/22 05:06:49;;;;;;;10.77;4.78;;;;;;;11.11;99.00;98236.94;5046154;28;20021;-70
2022/08/22 05:09:19;;;;;;;12.18;5.40;;;;;;;11.27;98.94;98240.84;5045855;28;20024;-70
2022/08/22 05:11:50;;;;;;;10.20;4.32;;;;;;;11.48;98.25;98253.41;5045893;28;20017;-70
2022/08/22 05:14:23;;;;;;;10.52;4.40;;;;;;;12.10;96.48;98257.69;5045785;28;20025;-70
2022/08/22 05:16:52;;;;;;;11.18;4.35;;;;;;;12.78;93.13;98263.34;5045800;28;20108;-70
2022/08/22 05:19:23;;;;;;;9.15;3.88;;;;;;;13.41;88.19;98268.19;5045704;28;20025;-70
2022/08/22 05:21:50;;;;;;;9.88;3.70;;;;;;;14.00;85.40;98266.81;5045640;28;20071;-70
2022/08/22 05:24:21;;;;;;;9.38;3.70;;;;;;;14.49;82.83;98272.78;5045883;28;20248;-70
2022/08/22 05:26:51;;;;;;;11.77;3.42;;;;;;;15.01;81.17;98271.47;5045662;28;20154;-70
2022/08/22 05:29:21;;;;;;;9.02;3.97;;;;;;;14.83;79.13;98269.59;5045546;28;20043;-70
2022/08/22 05:31:51;;;;;;;10.77;3.97;;;;;;;14.83;79.80;98272.25;5045513;28;20340;-70
2022/08/22 05:34:24;;;;;;;11.10;3.75;;;;;;;14.92;79.70;98279.81;5045383;28;20225;-70
2022/08/22 05:36:55;;;;;;;7.63;3.33;;;;;;;15.55;77.54;98285.00;5045324;28;20025;-70
2022/08/22 05:39:24;;;;;;;11.27;3.05;;;;;;;16.72;73.27;98290.06;5045210;28;20029;-70
2022/08/22 05:41:51;;;;;;;7.95;3.25;;;;;;;17.30;69.63;98279.16;5045104;28;20312;-70
2022/08/22 05:44:24;;;;;;;10.13;3.28;;;;;;;17.00;70.19;98273.59;5045233;28;20217;-70
2022/08/22 05:47:11;;;;;;;8.73;3.47;;;;;;;17.04;71.83;98281.34;5045097;28;20083;-70
2022/08/22 05:49:45;;;;;;;8.38;3.65;;;;;;;17.84;70.02;98286.94;5045084;28;20021;-70
2022/08/22 05:52:44;;;;;;;7.30;3.22;;;;;;;19.03;66.35;98291.69;5045195;28;20048;-70
2022/08/22 05:55:28;;;;;;;8.15;3.63;;;;;;;19.67;63.60;98294.03;5045117;28;20033;-70
2022/08/22 05:58:00;;;;;;;10.88;3.40;;;;;;;20.12;63.46;98308.13;5045007;28;20033;-70
2022/08/22 06:00:33;;;;;;;6.63;3.13;;;;;;;20.77;61.78;98304.78;5045143;28;20032;-70
2022/08/22 06:03:12;;;;;;;6.70;2.92;;;;;;;21.22;59.73;98290.19;5044850;28;20025;-70
2022/08/22 06:05:45;;;;;;;12.30;3.78;;;;;;;21.50;59.03;98291.84;5044812;28;20202;-70
2022/08/22 06:08:26;;;;;;;9.25;3.53;;;;;;;22.03;57.43;98302.41;5044963;28;20309;-70
2022/08/22 06:10:58;;;;;;;6.93;3.47;;;;;;;22.84;57.27;98309.88;5044794;28;20047;-70
2022/08/22 06:13:41;;;;;;;8.10;2.92;;;;;;;23.61;55.01;98310.28;5044629;28;20031;-70
2022/08/22 06:16:16;;;;;;;7.47;2.95;;;;;;;24.54;53.43;98318.09;5044614;28;20033;-70
2022/08/22 06:18:43;;;;;;;6.78;2.90;;;;;;;24.78;51.44;98311.63;5044580;28;20021;-70
2022/08/22 06:21:20;;;;;;;9.82;3.33;;;;;;;23.20;54.73;98296.44;5044794;28;20092;-70
2022/08/22 06:23:52;;;;;;;9.32;3.90;;;;;;;21.53;58.20;98291.63;5044550;28;20025;-70
2022/08/22 06:26:19;;;;;;;12.65;3.78;;;;;;;21.02;61.63;98296.03;5044500;28;20271;-70
2022/08/22 06:28:49;;;;;;;12.18;3.90;;;;;;;20.75;63.13;98293.31;5044297;28;20021;-70
2022/08/22 06:31:23;;;;;;;8.52;3.63;;;;;;;20.63;64.18;98299.47;5044280;28;20060;-70
2022/08/22 06:34:05;;;;;;;10.43;3.83;;;;;;;23.10;58.09;98319.56;5044329;28;20021;-70
2022/08/22 06:36:34;;;;;;;13.60;3.78;;;;;;;24.04;56.30;98330.19;5044294;28;20343;-70
2022/08/22 06:39:06;;;;;;;13.55;4.15;;;;;;;24.89;53.52;98335.84;5044245;28;20067;-70
2022/08/22 06:41:43;;;;;;;11.20;3.53;;;;;;;25.16;52.03;98336.25;5044465;28;20022;-70
2022/08/22 06:44:14;;;;;;;9.57;3.55;;;;;;;24.85;52.21;98334.38;5044332;28;20021;-70
2022/08/22 06:46:42;;;;;;;11.43;3.95;;;;;;;23.87;54.07;98317.19;5044452;28;20029;-70
2022/08/22 06:49:08;;;;;;;9.00;3.47;;;;;;;22.32;57.86;98296.72;5044086;28;20037;-70
2022/08/22 06:51:36;;;;;;;10.38;3.63;;;;;;;23.93;55.76;98332.84;5043384;28;20022;-70
2022/08/22 06:54:06;;;;;;;10.18;4.03;;;;;;;25.57;51.33;98331.97;5044118;28;20021;-70
2022/08/22 06:56:40;;;;;;;11.48;3.60;;;;;;;26.13;48.19;98331.53;5043997;28;20256;-70
2022/08/22 06:59:11;;;;;;;13.30;3.97;;;;;;;26.36;48.22;98343.03;5044019;28;20029;-70
2022/08/22 07:01:48;;;;;;;9.60;3.28;;;;;;;26.98;47.67;98344.59;5044229;28;20022;-70
2022/08/22 07:04:14;;;;;;;7.57;3.55;;;;;;;27.41;46.60;98341.56;5043908;28;20021;-70
2022/08/22 07:06:48;;;;;;;9.07;3.40;;;;;;;27.76;45.50;98349.13;5043861;28;20051;-70
2022/08/22 07:09:26;;;;;;;11.90;3.20;;;;;;;28.72;44.67;98346.09;5043943;28;20061;-70
2022/08/22 07:11:54;;;;;;;7.30;3.50;;;;;;;29.12;43.02;98352.06;5043848;28;20225;-70
2022/08/22 07:14:38;;;;;;;10.85;3.60;;;;;;;29.81;41.50;98351.44;5043793;28;20041;-70
2022/08/22 07:17:07;;;;;;;10.18;3.92;;;;;;;29.43;41.82;98340.84;5043787;28;20029;-70
2022/08/22 07:19:44;;;;;;;9.90;3.85;;;;;;;29.17;42.84;98341.59;5043774;28;20302;-70
2022/08/22 07:22:20;;;;;;;11.07;3.70;;;;;;;30.12;41.04;98350.00;5043817;28;20380;-70
2022/08/22 07:24:49;;;;;;;8.68;3.47;;;;;;;29.35;41.05;98332.66;5043810;28;20021;-70
2022/08/22 07:27:37;;;;;;;10.85;3.42;;;;;;;29.49;41.49;98332.09;5043607;28;20284;-70
2022/08/22 07:30:10;;;;;;;12.13;3.10;;;;;;;30.40;39.98;98338.03;5043714;28;20041;-70
2022/08/22 07:32:56;;;;;;;7.43;3.30;;;;;;;31.05;38.12;98337.34;5043657;28;20025;-70
2022/08/22 07:35:32;;;;;;;10.93;3.20;;;;;;;31.89;36.37;98343.53;5043680;28;20022;-70
2022/08/22 07:38:18;;;;;;;11.45;3.70;;;;;;;32.05;35.80;98341.63;5043627;28;20040;-70
2022/08/22 07:41:10;;;;;;;11.63;3.55;;;;;;;32.09;36.25;98337.56;5043906;28;20021;-70
2022/08/22 07:44:25;;;;;;;13.70;3.53;;;;;;;30.85;36.29;98314.16;5043825;28;20067;-70
2022/08/22 07:46:59;;;;;;;9.27;3.42;;;;;;;30.81;36.02;98318.19;5041696;28;20033;-70
2022/08/22 07:49:31;;;;;;;9.95;3.25;;;;;;;31.52;35.31;98322.22;5043811;28;20087;-70
2022/08/22 07:52:06;;;;;;;9.73;3.63;;;;;;;31.98;35.64;98335.19;5043498;28;20017;-71
2022/08/22 07:54:35;;;;;;;6.55;3.33;;;;;;;31.98;35.29;98324.28;5043714;28;20021;-71
2022/08/22 07:57:06;;;;;;;9.00;3.47;;;;;;;32.47;34.55;98330.56;5043450;28;20090;-71
2022/08/22 07:59:49;;;;;;;10.02;3.53;;;;;;;33.21;33.31;98335.63;5043454;28;20093;-70
2022/08/22 08:02:17;;;;;;;10.20;3.42;;;;;;;32.93;33.77;98327.88;5043461;28;20056;-70
2022/08/22 08:04:43;;;;;;;9.73;3.58;;;;;;;33.13;32.27;98334.59;5046353;28;20025;-70
2022/08/22 08:07:12;;;;;;;9.35;3.60;;;;;;;33.57;32.59;98320.41;5046955;28;20017;-70
2022/08/22 08:09:43;;;;;;;11.43;3.58;;;;;;;33.70;32.60;98326.13;5047030;28;20325;-70
2022/08/22 08:12:10;;;;;;;10.02;3.10;;;;;;;33.63;32.03;98325.97;5046976;28;20262;-70
2022/08/22 08:14:39;;;;;;;12.40;4.20;;;;;;;32.48;33.09;98322.22;5046913;28;20032;-70
2022/08/22 08:17:16;;;;;;;9.63;3.15;;;;;;;31.89;33.44;98319.03;5046914;28;20021;-70
2022/08/22 08:19:44;;;;;;;10.23;3.70;;;;;;;33.20;33.04;98329.28;5046960;28;20021;-70
2022/08/22 08:22:16;;;;;;;16.63;4.35;;;;;;;33.08;31.89;98315.22;5046764;28;20048;-70
2022/08/22 08:24:42;;;;;;;10.15;3.72;;;;;;;33.46;32.33;98318.94;5046826;28;20025;-70
2022/08/22 08:30:15;;;;;;;12.07;3.97;;;;;;;34.36;31.98;98329.03;5046508;28;20045;-70
2022/08/22 08:32:42;;;;;;;12.93;4.38;;;;;;;33.70;31.64;98316.06;5046853;28;20091;-70
2022/08/22 08:35:17;;;;;;;10.18;3.50;;;;;;;33.88;31.88;98322.06;5046563;28;20092;-70
2022/08/22 08:37:59;;;;;;;7.53;3.80;;;;;;;32.04;33.11;98311.84;5046577;28;20041;-70
2022/08/22 08:40:30;;;;;;;11.85;4.13;;;;;;;32.89;32.03;98332.00;5046689;28;20301;-70
2022/08/22 08:43:33;;;;;;;9.80;4.07;;;;;;;32.82;32.36;98330.13;5046436;28;20063;-70
2022/08/22 08:46:16;;;;;;;11.23;3.90;;;;;;;34.05;31.13;98330.97;5046636;28;20030;-70
2022/08/22 08:48:51;;;;;;;7.45;3.63;;;;;;;34.39;31.29;98334.13;5046254;28;20045;-70
2022/08/22 08:51:46;;;;;;;6.15;3.22;;;;;;;34.96;31.08;98340.69;5046250;28;20025;-70
2022/08/22 08:54:21;;;;;;;16.38;4.28;;;;;;;34.99;31.17;98343.03;5046222;28;20030;-70
2022/08/22 08:57:02;;;;;;;8.93;3.58;;;;;;;35.59;29.99;98340.84;5046156;28;20032;-70
2022/08/22 09:00:13;;;;;;;13.63;4.10;;;;;;;35.18;30.51;98331.50;5046134;28;20348;-70
2022/08/22 09:02:56;;;;;;;7.82;3.80;;;;;;;35.38;30.04;98337.25;5045990;28;20032;-70
2022/08/22 09:05:48;;;;;;;8.48;3.85;;;;;;;34.98;30.78;98336.72;5045955;28;20025;-70
2022/08/22 09:08:49;;;;;;;9.18;4.20;;;;;;;35.59;29.77;98340.84;5045803;28;20045;-70
2022/08/22 09:11:47;;;;;;;10.57;3.60;;;;;;;35.19;30.15;98337.81;5045189;28;20044;-70
2022/08/22 09:14:21;;;;;;;9.10;3.97;;;;;;;35.72;28.90;98340.16;5045671;28;20309;-70
2022/08/22 09:17:02;;;;;;;9.68;3.58;;;;;;;35.35;29.33;98332.16;5045191;28;20092;-70
2022/08/22 09:19:30;;;;;;;10.52;4.32;;;;;;;34.89;30.17;98331.50;5045782;28;20340;-70
2022/08/22 09:22:06;;;;;;;11.15;3.83;;;;;;;35.44;29.12;98339.22;5045692;28;20025;-70
2022/08/22 09:25:01;;;;;;;8.52;3.88;;;;;;;35.63;29.29;98336.72;5045871;28;20018;-70
2022/08/22 09:27:39;;;;;;;8.85;3.55;;;;;;;36.13;28.27;98333.00;5045450;28;20036;-70
2022/08/22 09:30:10;;;;;;;9.23;4.05;;;;;;;36.15;28.07;98334.50;5045428;28;20041;-70
2022/08/22 09:32:44;;;;;;;8.38;3.83;;;;;;;35.42;27.85;98322.97;5045772;28;20021;-70
2022/08/22 09:35:16;;;;;;;7.82;3.80;;;;;;;34.11;29.17;98309.25;5045420;28;20088;-70
2022/08/22 09:37:50;;;;;;;;;;;;;;;34.63;29.43;98315.56;5045843;28;20021;-70
2022/08/22 09:40:41;;;;;;;10.48;4.22;;;;;;;34.09;29.35;98297.66;5045324;28;19951;-70
2022/08/22 09:43:16;;;;;;;14.60;4.13;;;;;;;34.45;28.25;98309.59;5045548;28;20068;-70
2022/08/22 09:46:06;;;;;;;12.23;4.05;;;;;;;35.03;29.29;98313.41;5045290;28;20033;-70
2022/08/22 09:48:52;;;;;;;13.90;4.45;;;;;;;35.23;27.45;98296.19;5045105;28;20068;-70
2022/08/22 09:51:28;;;;;;;14.50;4.28;;;;;;;33.82;28.28;98283.69;5045195;28;20092;-70
2022/08/22 09:54:16;;;;;;;5.82;3.72;;;;;;;34.38;28.02;98291.41;5045329;28;20305;-70
2022/08/22 09:57:03;;;;;;;10.80;4.38;;;;;;;34.25;28.49;98293.91;5044982;28;20017;-70
2022/08/22 09:59:42;;;;;;;9.18;4.00;;;;;;;34.92;28.24;98295.56;5044974;28;20029;-70
2022/08/22 10:02:22;;;;;;;11.43;4.38;;;;;;;34.25;28.41;98285.69;5044888;28;20036;-70
2022/08/22 10:04:57;;;;;;;9.60;3.58;;;;;;;34.93;28.60;98283.63;5045116;28;20036;-70
2022/08/22 10:07:54;;;;;;;12.40;4.15;;;;;;;35.37;27.09;98284.41;5044732;28;20021;-70
2022/08/22 10:10:42;;;;;;;7.35;3.58;;;;;;;35.49;28.33;98273.78;5044796;28;20053;-70
2022/08/22 10:13:54;;;;;;;8.32;3.60;;;;;;;35.19;28.98;98275.72;5044692;28;20051;-70
2022/08/22 10:16:50;;;;;;;10.85;4.53;;;;;;;35.48;28.02;98272.06;5044248;28;20044;-70
2022/08/22 10:19:28;;;;;;;11.75;4.18;;;;;;;35.72;27.68;98275.28;5044618;28;20025;-70
2022/08/22 10:22:09;;;;;;;8.90;3.92;;;;;;;36.17;27.39;98280.34;5044452;28;20052;-70
2022/08/22 10:24:54;;;;;;;10.85;3.90;;;;;;;34.18;28.88;98254.69;5044530;28;20260;-70
2022/08/22 10:27:31;;;;;;;13.35;4.10;;;;;;;32.76;29.98;98244.44;5044353;28;20030;-70
2022/08/22 10:30:14;;;;;;;11.93;4.15;;;;;;;33.60;29.72;98260.00;5044161;28;20041;-70
2022/08/22 10:33:05;;;;;;;10.00;4.32;;;;;;;33.80;28.05;98247.53;5044337;28;20090;-70
2022/08/22 10:35:49;;;;;;;12.60;4.18;;;;;;;33.20;28.47;98231.09;5043928;28;20037;-70
2022/08/22 10:38:53;;;;;;;11.65;4.05;;;;;;;33.36;29.69;98247.38;5044289;28;20029;-70
2022/08/22 10:41:18;;;;;;;10.35;4.15;;;;;;;33.42;28.46;98233.00;5042519;28;20025;-70
2022/08/22 10:44:16;;;;;;;11.53;4.10;;;;;;;33.80;29.78;98229.28;5042568;28;20029;-70
2022/08/22 10:46:57;;;;;;;8.10;3.95;;;;;;;33.66;29.39;98240.16;5042398;28;20258;-70
2022/08/22 10:49:31;;;;;;;12.95;4.78;;;;;;;32.77;29.86;98216.13;5042467;28;20067;-70
2022/08/22 10:52:06;;;;;;;8.90;3.83;;;;;;;32.04;30.75;98219.28;5042422;28;20057;-70
2022/08/22 10:54:42;;;;;;;13.00;4.18;;;;;;;32.31;31.06;98217.00;5042374;28;20029;-70
2022/08/22 10:57:21;;;;;;;10.52;4.32;;;;;;;31.65;32.20;98208.25;5042345;28;20325;-70
2022/08/22 10:59:58;;;;;;;9.40;3.85;;;;;;;30.62;32.44;98197.03;5042257;28;20057;-70
2022/08/22 11:02:49;;;;;;;7.47;3.67;;;;;;;30.32;33.21;98194.03;5042279;28;20325;-70
2022/08/22 11:05:26;;;;;;;14.27;4.05;;;;;;;30.21;33.34;98187.00;5042241;28;20140;-70
2022/08/22 11:08:34;;;;;;;10.82;4.03;;;;;;;30.12;35.15;98187.13;5042171;28;20033;-70
2022/08/22 11:11:15;;;;;;;9.77;3.90;;;;;;;30.05;36.34;98181.47;5042269;28;20035;-70
2022/08/22 11:14:10;;;;;;;10.38;4.05;;;;;;;29.77;36.58;98182.66;5044008;28;20269;-70
2022/08/22 11:17:05;;;;;;;9.02;3.85;;;;;;;30.63;33.51;98184.28;5044127;28;20056;-70
2022/08/22 11:19:54;;;;;;;9.00;3.70;;;;;;;31.81;33.18;98202.81;5043864;28;20028;-70
2022/08/22 11:22:19;;;;;;;8.73;3.65;;;;;;;32.38;31.23;98204.41;5043824;28;20052;-70
2022/08/22 11:25:10;;;;;;;10.30;4.00;;;;;;;32.53;32.60;98191.75;5043807;28;20309;-70
2022/08/22 11:28:00;;;;;;;9.32;3.42;;;;;;;31.59;32.81;98187.16;5043605;28;20275;-70
2022/08/22 11:30:49;;;;;;;14.73;4.50;;;;;;;31.22;33.23;98173.19;5043619;28;20053;-70
2022/08/22 11:33:33;;;;;;;10.40;3.83;;;;;;;31.16;32.90;98179.31;5043741;28;20025;-70
2022/08/22 11:36:20;;;;;;;10.27;4.07;;;;;;;32.00;32.63;98202.44;5043661;28;20104;-70
2022/08/22 11:38:51;;;;;;;8.45;3.40;;;;;;;31.25;31.69;98174.75;5045237;28;20025;-70
2022/08/22 11:41:30;;;;;;;9.85;3.95;;;;;;;31.17;31.20;98165.53;5047635;28;20028;-70
2022/08/22 11:44:05;;;;;;;7.38;3.30;;;;;;;31.14;32.29;98165.06;5047791;28;20317;-70
2022/08/22 11:46:35;;;;;;;7.95;3.22;;;;;;;31.25;32.75;98174.75;5047426;28;20021;-70
2022/08/22 11:49:09;;;;;;;9.68;3.45;;;;;;;30.73;32.97;98155.13;5047387;28;20033;-70
2022/08/22 11:51:52;;;;;;;10.30;4.10;;;;;;;30.16;34.00;98150.47;5047422;28;20031;-70
2022/08/22 11:54:37;;;;;;;10.40;3.60;;;;;;;29.60;34.37;98152.84;5047376;28;20380;-70
2022/08/22 11:57:15;;;;;;;10.18;3.65;;;;;;;28.91;35.42;98140.06;5047275;28;20029;-70
2022/08/22 11:59:58;;;;;;;8.07;4.18;;;;;;;28.55;35.67;98140.22;5047286;28;20029;-70
2022/08/22 12:03:14;;;;;;;13.55;4.30;;;;;;;28.81;35.27;98151.97;5047223;28;20036;-70
2022/08/22 12:05:51;;;;;;;8.35;3.75;;;;;;;28.92;35.78;98149.06;5047387;28;20029;-70
2022/08/22 12:08:24;;;;;;;10.80;4.07;;;;;;;29.11;36.10;98157.88;5046944;28;20035;-70
2022/08/22 12:11:08;;;;;;;13.52;3.92;;;;;;;29.43;36.43;98159.16;5047027;28;20040;-70
2022/08/22 12:13:51;;;;;;;11.65;3.92;;;;;;;29.43;36.02;98161.88;5046939;28;20093;-70
2022/08/22 12:16:45;;;;;;;12.43;4.25;;;;;;;29.34;35.86;98146.56;5046966;28;20060;-70
2022/08/22 12:19:34;;;;;;;8.73;4.32;;;;;;;29.46;34.57;98146.16;5046943;28;20045;-70
2022/08/22 12:22:29;;;;;;;10.90;3.88;;;;;;;29.32;34.85;98138.56;5046825;28;20067;-70
2022/08/22 12:25:20;;;;;;;17.33;4.78;;;;;;;29.84;35.32;98150.31;5046271;28;20064;-70
2022/08/22 12:28:31;;;;;;;11.23;3.72;;;;;;;29.11;34.75;98136.19;5046837;28;20027;-70
2022/08/22 12:31:24;;;;;;;15.23;4.90;;;;;;;29.04;36.44;98139.69;5046060;28;20236;-70
2022/08/22 12:34:01;;;;;;;10.73;3.53;;;;;;;28.51;36.26;98131.53;5046553;28;20033;-70
2022/08/22 12:36:36;;;;;;;11.38;3.90;;;;;;;28.78;36.39;98134.19;5046773;28;20321;-70